createdAt,value
2023-02-11T00:01:32.224Z,57.62
2023-02-11T00:04:05.556Z,56.79
2023-02-11T00:06:37.229Z,55.33
2023-02-11T00:09:10.436Z,56.33
2023-02-11T00:11:42.051Z,55.51
2023-02-11T00:14:13.688Z,54.52
2023-02-11T00:16:45.326Z,54.51
2023-02-11T00:19:16.929Z,55.17
2023-02-11T00:21:48.535Z,55.47
2023-02-11T00:24:20.155Z,54.90
2023-02-11T00:26:51.868Z,55.15
2023-02-11T00:29:23.686Z,54.93
2023-02-11T00:31:55.365Z,54.68
2023-02-11T00:34:28.931Z,54.58
2023-02-11T00:37:00.525Z,55.85
2023-02-11T00:39:32.588Z,55.01
2023-02-11T00:42:04.359Z,55.91
2023-02-11T00:44:35.988Z,55.53
2023-02-11T00:47:07.567Z,55.54
2023-02-11T00:49:39.300Z,56.22
2023-02-11T00:52:10.942Z,56.79
2023-02-11T00:54:42.600Z,56.39
2023-02-11T00:57:14.294Z,56.71
2023-02-11T00:59:45.967Z,57.71
2023-02-11T01:02:17.612Z,58.19
2023-02-11T01:04:49.267Z,58.84
2023-02-11T01:07:21.060Z,57.75
2023-02-11T01:09:53.473Z,59.75
2023-02-11T01:12:25.683Z,59.39
2023-02-11T01:14:57.291Z,59.44
2023-02-11T01:17:28.983Z,58.91
2023-02-11T01:20:07.385Z,58.33
2023-02-11T01:22:39.080Z,58.51
2023-02-11T01:25:10.812Z,59.17
2023-02-11T01:27:42.828Z,58.97
2023-02-11T01:30:14.835Z,58.80
2023-02-11T01:32:46.471Z,58.48
2023-02-11T01:35:18.153Z,58.71
2023-02-11T01:37:49.717Z,57.58
2023-02-11T01:40:22.857Z,58.34
2023-02-11T01:42:54.528Z,56.90
2023-02-11T01:45:44.533Z,57.80
2023-02-11T01:48:32.437Z,58.73
2023-02-11T01:51:16.780Z,58.84
2023-02-11T01:53:50.981Z,58.41
2023-02-11T01:56:26.121Z,59.62
2023-02-11T01:59:06.240Z,59.55
2023-02-11T02:01:44.887Z,59.60
2023-02-11T02:04:19.262Z,58.84
2023-02-11T02:06:57.980Z,58.98
2023-02-11T02:09:39.510Z,57.42
2023-02-11T02:12:11.214Z,58.43
2023-02-11T02:14:43.110Z,59.25
2023-02-11T02:17:36.961Z,59.65
2023-02-11T02:20:34.679Z,61.35
2023-02-11T02:23:27.750Z,62.62
2023-02-11T02:26:37.885Z,62.07
2023-02-11T02:29:46.652Z,62.55
2023-02-11T02:32:39.685Z,61.68
2023-02-11T02:35:39.077Z,60.06
2023-02-11T02:38:20.701Z,59.24
2023-02-11T02:40:56.609Z,58.59
2023-02-11T02:43:30.623Z,58.13
2023-02-11T02:46:25.121Z,59.06
2023-02-11T02:48:58.514Z,60.66
2023-02-11T02:51:58.253Z,61.38
2023-02-11T02:55:05.796Z,60.97
2023-02-11T02:57:58.612Z,61.48
2023-02-11T03:00:38.558Z,62.64
2023-02-11T03:03:29.276Z,63.24
2023-02-11T03:06:50.325Z,61.70
2023-02-11T03:09:40.213Z,61.06
2023-02-11T03:12:14.515Z,60.05
2023-02-11T03:14:52.292Z,60.16
2023-02-11T03:17:28.246Z,61.55
2023-02-11T03:20:02.259Z,61.78
2023-02-11T03:22:59.783Z,59.78
2023-02-11T03:25:48.755Z,59.22
2023-02-11T03:28:49.506Z,61.63
2023-02-11T03:32:04.250Z,60.58
2023-02-11T03:35:03.798Z,60.37
2023-02-11T03:37:43.718Z,60.26
2023-02-11T03:40:26.892Z,60.72
2023-02-11T03:43:09.714Z,59.91
2023-02-11T03:45:41.711Z,59.59
2023-02-11T03:48:40.694Z,61.02
2023-02-11T03:51:16.125Z,61.12
2023-02-11T03:53:52.596Z,61.12
2023-02-11T03:56:30.040Z,61.70
2023-02-11T03:59:01.766Z,60.04
2023-02-11T04:01:33.752Z,59.95
2023-02-11T04:04:06.520Z,62.13
2023-02-11T04:06:38.360Z,62.35
2023-02-11T04:09:11.424Z,61.54
2023-02-11T04:11:43.103Z,60.65
2023-02-11T04:14:14.757Z,61.14
2023-02-11T04:16:46.405Z,61.34
2023-02-11T04:19:18.004Z,60.27
2023-02-11T04:21:49.546Z,61.48
2023-02-11T04:24:21.139Z,61.82
2023-02-11T04:26:52.740Z,62.24
2023-02-11T04:29:24.548Z,60.66
2023-02-11T04:31:56.254Z,61.14
2023-02-11T04:34:28.091Z,60.62
2023-02-11T04:36:59.696Z,62.01
2023-02-11T04:39:31.326Z,62.28
2023-02-11T04:42:03.039Z,62.23
2023-02-11T04:44:34.638Z,62.09
2023-02-11T04:47:06.262Z,62.52
2023-02-11T04:49:37.866Z,63.89
2023-02-11T04:52:09.534Z,65.26
2023-02-11T04:54:41.168Z,65.58
2023-02-11T04:57:12.847Z,63.25
2023-02-11T04:59:44.722Z,62.59
2023-02-11T05:02:16.424Z,62.33
2023-02-11T05:04:48.062Z,61.26
2023-02-11T05:07:19.685Z,61.35
2023-02-11T05:09:51.255Z,61.69
2023-02-11T05:12:22.988Z,62.88
2023-02-11T05:14:54.583Z,64.07
2023-02-11T05:17:26.244Z,63.35
2023-02-11T05:19:57.859Z,62.30
2023-02-11T05:22:29.415Z,62.07
2023-02-11T05:25:01.015Z,62.75
2023-02-11T05:27:32.710Z,63.75
2023-02-11T05:30:06.152Z,62.78
2023-02-11T05:32:37.707Z,62.61
2023-02-11T05:35:09.333Z,63.51
2023-02-11T05:37:40.977Z,64.72
2023-02-11T05:40:12.702Z,64.57
2023-02-11T05:42:44.456Z,63.47
2023-02-11T05:45:16.273Z,65.30
2023-02-11T05:47:47.859Z,64.95
2023-02-11T05:50:19.641Z,64.90
2023-02-11T05:52:51.835Z,65.49
2023-02-11T05:55:23.611Z,64.45
2023-02-11T05:57:55.191Z,63.77
2023-02-11T06:00:27.470Z,62.74
2023-02-11T06:02:59.324Z,62.97
2023-02-11T06:05:33.330Z,62.30
2023-02-11T06:08:05.113Z,62.04
2023-02-11T06:10:36.849Z,62.51
2023-02-11T06:13:08.774Z,63.28
2023-02-11T06:15:40.415Z,61.41
2023-02-11T06:18:12.118Z,61.36
2023-02-11T06:20:43.715Z,63.03
2023-02-11T06:23:15.364Z,63.66
2023-02-11T06:25:46.945Z,63.25
2023-02-11T06:28:18.963Z,63.34
2023-02-11T06:30:50.591Z,63.14
2023-02-11T06:33:22.439Z,62.28
2023-02-11T06:35:53.966Z,63.71
2023-02-11T06:38:25.611Z,64.43
2023-02-11T06:40:57.348Z,64.90
2023-02-11T06:43:28.925Z,66.77
2023-02-11T06:46:00.553Z,66.47
2023-02-11T06:48:32.277Z,66.96
2023-02-11T06:51:06.554Z,65.89
2023-02-11T06:53:41.820Z,64.80
2023-02-11T06:56:19.622Z,65.67
2023-02-11T06:58:55.375Z,65.43
2023-02-11T07:01:27.718Z,65.81
2023-02-11T07:03:59.489Z,64.61
2023-02-11T07:06:31.085Z,64.62
2023-02-11T07:09:03.864Z,64.00
2023-02-11T07:11:35.713Z,63.87
2023-02-11T07:14:08.217Z,64.77
2023-02-11T07:16:39.922Z,63.45
2023-02-11T07:19:12.073Z,63.83
2023-02-11T07:21:43.794Z,63.83
2023-02-11T07:24:15.579Z,65.19
2023-02-11T07:26:47.162Z,63.68
2023-02-11T07:29:18.767Z,59.82
2023-02-11T07:31:50.471Z,58.47
2023-02-11T07:34:22.203Z,58.64
2023-02-11T07:36:53.828Z,56.92
2023-02-11T07:39:25.910Z,57.58
2023-02-11T07:41:58.593Z,57.48
2023-02-11T07:44:31.061Z,57.35
2023-02-11T07:47:03.324Z,55.12
2023-02-11T07:49:34.929Z,52.58
2023-02-11T07:52:06.531Z,49.56
2023-02-11T07:54:38.141Z,44.18
2023-02-11T07:57:09.738Z,41.38
2023-02-11T07:59:41.282Z,39.38
2023-02-11T08:02:13.008Z,38.78
2023-02-11T08:04:46.370Z,37.14
2023-02-11T08:07:18.474Z,36.17
2023-02-11T08:09:50.077Z,34.64
2023-02-11T08:12:21.715Z,32.06
2023-02-11T08:14:53.378Z,32.38
2023-02-11T08:17:25.011Z,29.78
2023-02-11T08:19:56.636Z,30.16
2023-02-11T08:22:30.886Z,29.48
2023-02-11T08:25:02.497Z,28.24
2023-02-11T08:27:34.131Z,26.95
2023-02-11T08:30:06.279Z,27.25
2023-02-11T08:32:37.815Z,26.83
2023-02-11T08:35:09.649Z,28.81
2023-02-11T08:37:41.223Z,28.80
2023-02-11T08:40:12.819Z,28.79
2023-02-11T08:42:44.536Z,28.70
2023-02-11T08:45:16.185Z,29.94
2023-02-11T08:47:47.848Z,29.05
2023-02-11T08:50:19.584Z,28.14
2023-02-11T08:52:51.154Z,28.53
2023-02-11T08:55:22.789Z,28.94
2023-02-11T08:57:54.339Z,26.98
2023-02-11T09:00:26.084Z,27.10
2023-02-11T09:02:57.763Z,27.18
2023-02-11T09:05:29.353Z,29.43
2023-02-11T09:08:00.909Z,26.69
2023-02-11T09:10:33.177Z,24.65
2023-02-11T09:13:05.190Z,24.00
2023-02-11T09:15:37.220Z,25.18
2023-02-11T09:18:08.931Z,26.51
2023-02-11T09:20:40.583Z,25.74
2023-02-11T09:23:12.197Z,26.26
2023-02-11T09:25:43.996Z,25.66
2023-02-11T09:28:15.628Z,27.51
2023-02-11T09:30:47.342Z,28.62
2023-02-11T09:33:18.969Z,26.57
2023-02-11T09:35:50.569Z,24.74
2023-02-11T09:38:22.191Z,22.93
2023-02-11T09:40:54.019Z,24.11
2023-02-11T09:43:47.141Z,21.91
2023-02-11T09:46:21.237Z,22.61
2023-02-11T09:48:56.186Z,23.95
2023-02-11T09:51:36.808Z,24.59
2023-02-11T09:54:28.728Z,22.63
2023-02-11T09:57:00.441Z,21.75
2023-02-11T09:59:32.122Z,21.48
2023-02-11T10:02:18.482Z,22.38
2023-02-11T10:05:30.502Z,20.70
2023-02-11T10:08:37.222Z,19.65
2023-02-11T10:11:31.297Z,19.89
2023-02-11T10:14:29.665Z,20.47
2023-02-11T10:17:16.542Z,21.14
2023-02-11T10:20:03.092Z,19.73
2023-02-11T10:22:45.316Z,21.66
2023-02-11T10:25:27.842Z,21.15
2023-02-11T10:28:02.385Z,19.66
2023-02-11T10:30:52.916Z,17.52
2023-02-11T10:33:31.040Z,19.49
2023-02-11T10:36:04.264Z,17.02
2023-02-11T10:38:36.713Z,17.56
2023-02-11T10:41:17.581Z,18.06
2023-02-11T10:43:50.981Z,18.41
2023-02-11T10:46:33.023Z,17.37
2023-02-11T10:49:04.743Z,16.70
2023-02-11T10:51:36.386Z,16.10
2023-02-11T10:54:07.957Z,16.81
2023-02-11T10:56:50.343Z,18.51
2023-02-11T10:59:30.479Z,17.61
2023-02-11T11:02:23.766Z,18.79
2023-02-11T11:05:02.923Z,20.14
2023-02-11T11:07:36.330Z,20.67
2023-02-11T11:10:39.674Z,21.11
2023-02-11T11:13:38.775Z,22.50
2023-02-11T11:16:13.456Z,26.07
2023-02-11T11:18:48.945Z,26.78
2023-02-11T11:21:30.286Z,25.32
2023-02-11T11:24:04.126Z,24.50
2023-02-11T11:26:40.816Z,25.43
2023-02-11T11:29:26.718Z,24.84
2023-02-11T11:32:02.570Z,24.99
2023-02-11T11:34:39.848Z,24.75
2023-02-11T11:37:23.768Z,26.46
2023-02-11T11:40:10.706Z,28.40
2023-02-11T11:42:43.267Z,27.15
2023-02-11T11:45:17.932Z,26.72
2023-02-11T11:48:24.532Z,26.88
2023-02-11T11:51:05.849Z,24.82
2023-02-11T11:54:12.893Z,25.88
2023-02-11T11:56:59.943Z,28.80
2023-02-11T11:59:32.163Z,26.56
2023-02-11T12:02:25.485Z,27.16
2023-02-11T12:05:09.428Z,27.40
2023-02-11T12:07:59.022Z,24.10
2023-02-11T12:11:05.242Z,22.88
2023-02-11T12:14:23.314Z,20.82
2023-02-11T12:17:22.847Z,21.75
2023-02-11T12:20:19.059Z,21.38
2023-02-11T12:22:50.593Z,25.17
2023-02-11T12:25:28.479Z,24.38
2023-02-11T12:28:18.035Z,25.58
2023-02-11T12:30:57.213Z,27.68
2023-02-11T12:33:51.614Z,22.80
2023-02-11T12:36:50.503Z,24.51
2023-02-11T12:39:27.972Z,25.33
2023-02-11T12:42:23.052Z,26.61
2023-02-11T12:45:12.747Z,24.38
2023-02-11T12:48:12.966Z,22.26
2023-02-11T12:51:01.212Z,24.34
2023-02-11T12:53:48.818Z,25.38
2023-02-11T12:56:36.336Z,27.29
2023-02-11T12:59:46.896Z,24.62
2023-02-11T13:02:28.921Z,27.07
2023-02-11T13:05:17.498Z,23.77
2023-02-11T13:07:53.410Z,25.00
2023-02-11T13:10:35.263Z,25.38
2023-02-11T13:13:36.065Z,26.73
2023-02-11T13:16:30.224Z,28.54
2023-02-11T13:19:27.947Z,28.36
2023-02-11T13:22:19.982Z,25.22
2023-02-11T13:24:58.774Z,26.63
2023-02-11T13:27:45.553Z,26.21
2023-02-11T13:30:34.330Z,24.38
2023-02-11T13:33:17.112Z,24.38
2023-02-11T13:36:08.605Z,24.60
2023-02-11T13:38:40.512Z,24.63
2023-02-11T13:41:26.943Z,25.06
2023-02-11T13:44:24.617Z,23.36
2023-02-11T13:46:58.387Z,22.10
2023-02-11T13:49:32.656Z,25.26
2023-02-11T13:52:16.386Z,27.02
2023-02-11T13:54:52.388Z,25.43
2023-02-11T13:57:29.332Z,24.63
2023-02-11T14:00:25.109Z,24.33
2023-02-11T14:03:12.058Z,25.09
2023-02-11T14:06:11.690Z,24.18
2023-02-11T14:09:14.344Z,22.11
2023-02-11T14:11:47.848Z,23.58
2023-02-11T14:14:25.546Z,24.51
2023-02-11T14:16:59.983Z,22.77
2023-02-11T14:19:41.024Z,24.51
2023-02-11T14:22:15.341Z,27.33
2023-02-11T14:24:52.605Z,25.35
2023-02-11T14:27:44.717Z,23.68
2023-02-11T14:30:55.937Z,24.65
2023-02-11T14:33:36.517Z,26.36
2023-02-11T14:36:37.122Z,24.27
2023-02-11T14:39:32.523Z,22.44
2023-02-11T14:42:04.789Z,21.00
2023-02-11T14:44:36.625Z,21.62
2023-02-11T14:47:20.921Z,19.56
2023-02-11T14:49:54.170Z,18.90
2023-02-11T14:52:27.503Z,19.96
2023-02-11T14:55:06.211Z,20.12
2023-02-11T14:57:37.837Z,20.79
2023-02-11T15:00:21.283Z,24.46
2023-02-11T15:02:52.995Z,23.60
2023-02-11T15:05:27.424Z,24.39
2023-02-11T15:08:04.465Z,24.08
2023-02-11T15:10:43.037Z,28.19
2023-02-11T15:13:20.991Z,29.53
2023-02-11T15:16:00.661Z,28.14
2023-02-11T15:18:56.344Z,29.38
2023-02-11T15:21:32.566Z,30.10
2023-02-11T15:24:25.164Z,30.46
2023-02-11T15:27:01.421Z,33.19
2023-02-11T15:29:44.015Z,33.66
2023-02-11T15:32:18.638Z,35.10
2023-02-11T15:34:53.709Z,34.82
2023-02-11T15:37:30.553Z,34.40
2023-02-11T15:40:20.872Z,34.31
2023-02-11T15:43:04.466Z,34.42
2023-02-11T15:45:43.823Z,34.30
2023-02-11T15:48:37.558Z,34.99
2023-02-11T15:51:27.049Z,39.41
2023-02-11T15:54:02.581Z,41.44
2023-02-11T15:56:40.926Z,42.04
2023-02-11T15:59:20.683Z,42.71
2023-02-11T16:01:54.910Z,41.70
2023-02-11T16:04:28.011Z,41.28
2023-02-11T16:06:59.646Z,42.33
2023-02-11T16:09:35.235Z,42.99
2023-02-11T16:12:25.211Z,42.28
2023-02-11T16:14:56.926Z,42.20
2023-02-11T16:17:29.716Z,41.30
2023-02-11T16:20:01.398Z,42.95
2023-02-11T16:22:33.263Z,42.64
2023-02-11T16:25:05.215Z,42.26
2023-02-11T16:27:41.401Z,44.06
2023-02-11T16:30:33.298Z,43.65
2023-02-11T16:33:05.113Z,42.94
2023-02-11T16:35:36.730Z,42.70
2023-02-11T16:38:08.294Z,43.14
2023-02-11T16:40:39.964Z,43.79
2023-02-11T16:43:12.252Z,44.07
2023-02-11T16:45:43.890Z,43.90
2023-02-11T16:48:18.318Z,44.71
2023-02-11T16:50:53.400Z,44.41
2023-02-11T16:53:25.365Z,44.96
2023-02-11T16:55:56.946Z,45.70
2023-02-11T16:58:28.584Z,46.64
2023-02-11T17:01:00.724Z,47.33
2023-02-11T17:03:32.797Z,47.53
2023-02-11T17:06:04.926Z,47.70
2023-02-11T17:08:36.562Z,47.81
2023-02-11T17:11:08.185Z,47.89
2023-02-11T17:13:39.877Z,48.52
2023-02-11T17:16:19.386Z,48.74
2023-02-11T17:18:51.079Z,48.50
2023-02-11T17:21:22.665Z,50.15
2023-02-11T17:23:54.321Z,49.80
2023-02-11T17:26:26.136Z,49.72
2023-02-11T17:28:57.725Z,50.01
2023-02-11T17:31:29.404Z,50.41
2023-02-11T17:34:01.260Z,51.71
2023-02-11T17:36:33.089Z,51.55
2023-02-11T17:39:08.108Z,51.97
2023-02-11T17:41:40.750Z,50.64
2023-02-11T17:44:12.613Z,50.84
2023-02-11T17:46:44.254Z,50.38
2023-02-11T17:49:15.855Z,51.98
2023-02-11T17:51:47.540Z,52.70
2023-02-11T17:54:19.562Z,51.90
2023-02-11T17:56:51.349Z,52.79
2023-02-11T17:59:23.018Z,52.31
2023-02-11T18:01:54.556Z,52.62
2023-02-11T18:04:26.255Z,52.17
2023-02-11T18:06:58.142Z,52.69
2023-02-11T18:09:29.759Z,52.57
2023-02-11T18:12:01.595Z,51.86
2023-02-11T18:14:33.897Z,52.45
2023-02-11T18:17:05.535Z,52.05
2023-02-11T18:19:37.115Z,51.94
2023-02-11T18:22:08.736Z,52.21
2023-02-11T18:24:41.495Z,52.21
2023-02-11T18:27:13.411Z,52.75
2023-02-11T18:29:45.361Z,52.81
2023-02-11T18:32:17.042Z,52.11
2023-02-11T18:34:48.613Z,51.99
2023-02-11T18:37:20.199Z,52.60
2023-02-11T18:39:51.872Z,53.59
2023-02-11T18:42:23.522Z,53.15
2023-02-11T18:44:55.130Z,53.06
2023-02-11T18:47:26.729Z,53.20
2023-02-11T18:49:58.275Z,52.74
2023-02-11T18:52:29.866Z,53.73
2023-02-11T18:55:01.468Z,53.33
2023-02-11T18:57:33.296Z,53.11
2023-02-11T19:00:07.885Z,53.44
2023-02-11T19:02:39.532Z,53.18
2023-02-11T19:05:11.565Z,53.28
2023-02-11T19:07:43.166Z,53.33
2023-02-11T19:10:14.806Z,53.42
2023-02-11T19:12:46.434Z,53.52
2023-02-11T19:15:18.185Z,53.58
2023-02-11T19:17:49.850Z,53.16
2023-02-11T19:20:21.499Z,53.07
2023-02-11T19:22:53.114Z,53.14
2023-02-11T19:25:24.665Z,53.31
2023-02-11T19:27:56.293Z,53.87
2023-02-11T19:30:28.154Z,53.98
2023-02-11T19:32:59.728Z,53.76
2023-02-11T19:35:34.518Z,54.57
2023-02-11T19:38:06.188Z,54.74
2023-02-11T19:40:37.727Z,54.22
2023-02-11T19:43:09.265Z,54.22
2023-02-11T19:45:40.826Z,54.25
2023-02-11T19:48:12.820Z,54.37
2023-02-11T19:50:44.481Z,57.18
2023-02-11T19:53:16.123Z,57.67
2023-02-11T19:55:48.822Z,57.59
2023-02-11T19:58:20.467Z,57.35
2023-02-11T20:00:52.056Z,58.55
2023-02-11T20:03:23.622Z,57.05
2023-02-11T20:05:55.264Z,57.57
2023-02-11T20:08:26.800Z,56.81
2023-02-11T20:11:04.990Z,56.15
2023-02-11T20:13:37.928Z,56.74
2023-02-11T20:16:12.954Z,56.63
2023-02-11T20:18:45.793Z,55.78
2023-02-11T20:21:20.968Z,55.35
2023-02-11T20:23:53.536Z,56.35
2023-02-11T20:26:31.725Z,56.41
2023-02-11T20:29:03.391Z,56.33
2023-02-11T20:31:35.122Z,55.94
2023-02-11T20:34:06.812Z,55.81
2023-02-11T20:36:38.481Z,55.47
2023-02-11T20:39:11.426Z,55.15
2023-02-11T20:41:43.042Z,55.01
2023-02-11T20:44:14.820Z,55.44
2023-02-11T20:46:46.527Z,55.05
2023-02-11T20:49:22.202Z,55.43
2023-02-11T20:51:54.444Z,55.42
2023-02-11T20:54:26.418Z,55.41
2023-02-11T20:56:58.025Z,55.18
2023-02-11T20:59:29.692Z,54.58
2023-02-11T21:02:01.347Z,54.17
2023-02-11T21:04:33.683Z,54.48
2023-02-11T21:07:05.365Z,54.85
2023-02-11T21:09:36.912Z,54.34
2023-02-11T21:12:08.491Z,54.30
2023-02-11T21:14:40.077Z,54.35
2023-02-11T21:17:12.135Z,53.70
2023-02-11T21:19:44.008Z,54.30
2023-02-11T21:22:15.647Z,55.01
2023-02-11T21:24:47.377Z,56.74
2023-02-11T21:27:18.990Z,55.70
2023-02-11T21:29:54.576Z,55.29
2023-02-11T21:32:26.648Z,54.63
2023-02-11T21:35:00.546Z,55.81
2023-02-11T21:37:33.558Z,57.35
2023-02-11T21:40:05.781Z,57.52
2023-02-11T21:42:37.366Z,57.51
2023-02-11T21:45:09.345Z,58.22
2023-02-11T21:47:40.979Z,57.94
2023-02-11T21:50:12.577Z,57.86
2023-02-11T21:52:44.222Z,57.34
2023-02-11T21:55:16.076Z,56.68
2023-02-11T21:57:47.673Z,56.81
2023-02-11T22:00:19.587Z,56.54
2023-02-11T22:02:51.338Z,56.14
2023-02-11T22:05:23.451Z,56.19
2023-02-11T22:07:55.673Z,56.52
2023-02-11T22:10:27.438Z,58.57
2023-02-11T22:12:59.132Z,56.90
2023-02-11T22:15:30.864Z,55.18
2023-02-11T22:18:02.459Z,54.41
2023-02-11T22:20:34.114Z,53.78
2023-02-11T22:23:05.791Z,52.94
2023-02-11T22:25:37.352Z,52.52
2023-02-11T22:28:08.966Z,52.62
2023-02-11T22:30:40.646Z,51.88
2023-02-11T22:33:12.261Z,53.14
2023-02-11T22:35:43.924Z,52.89
2023-02-11T22:38:15.566Z,52.04
2023-02-11T22:40:47.193Z,51.66
2023-02-11T22:43:18.856Z,50.96
2023-02-11T22:45:50.914Z,51.33
2023-02-11T22:48:23.239Z,51.93
2023-02-11T22:50:54.993Z,53.00
2023-02-11T22:53:26.558Z,54.70
2023-02-11T22:56:05.313Z,56.12
2023-02-11T22:58:37.213Z,56.25
2023-02-11T23:01:08.825Z,56.71
2023-02-11T23:03:40.646Z,57.24
2023-02-11T23:06:13.197Z,57.58
2023-02-11T23:08:45.666Z,57.24
2023-02-11T23:11:21.293Z,56.83
2023-02-11T23:13:53.904Z,57.40
2023-02-11T23:16:30.205Z,56.56
2023-02-11T23:19:06.476Z,56.21
2023-02-11T23:21:39.056Z,54.60
2023-02-11T23:24:14.807Z,53.53
2023-02-11T23:26:46.387Z,52.94
2023-02-11T23:29:17.954Z,52.43
2023-02-11T23:31:49.918Z,52.15
2023-02-11T23:34:21.618Z,51.59
2023-02-11T23:36:53.315Z,51.59
2023-02-11T23:39:25.244Z,51.28
2023-02-11T23:41:56.816Z,51.24
2023-02-11T23:44:28.476Z,51.23
2023-02-11T23:47:00.115Z,50.27
2023-02-11T23:49:31.754Z,50.22
2023-02-11T23:52:03.845Z,51.21
2023-02-11T23:54:35.474Z,51.28
2023-02-11T23:57:07.031Z,51.42
2023-02-11T23:59:38.689Z,51.49
